EST,Max TemperatureF,Mean TemperatureF,Min TemperatureF,Max Dew PointF,MeanDew PointF,Min DewpointF,Max Humidity, Mean Humidity, Min Humidity, Max Sea Level PressureIn, Mean Sea Level PressureIn, Min Sea Level PressureIn, Max VisibilityMiles, Mean VisibilityMiles, Min VisibilityMiles, Max Wind SpeedMPH, Mean Wind SpeedMPH, Max Gust SpeedMPH,PrecipitationIn, CloudCover, Events, WindDirDegrees
2012-12-1,46,38,30,39,34,28,100,90,76,30.48,30.41,30.37,10,4,0,6,1,,0.00,3,,47
2012-12-2,55,44,32,46,39,32,100,89,63,30.42,30.29,30.16,10,5,0,7,1,,0.00,6,,189
2012-12-3,69,53,37,52,46,36,100,82,53,30.28,30.23,30.16,10,7,0,8,2,,0.00,2,,244
2012-12-4,71,56,42,52,47,43,100,78,43,30.26,30.18,30.03,10,8,0,9,2,,0.00,4,,199
2012-12-5,62,50,35,46,35,21,72,52,35,30.33,30.15,30.01,10,10,10,16,9,23,0.00,2,,298
2012-12-6,42,33,24,25,23,21,93,68,42,30.41,30.34,30.28,10,10,10,7,2,,0.00,0,,73
2012-12-7,48,38,28,45,36,25,100,85,66,30.28,30.14,30.00,10,9,4,5,0,,0.00,7,,164
2012-12-8,53,48,44,48,46,43,100,93,82,30.05,29.96,29.92,10,3,0,6,1,,0.00,7,,178
2012-12-9,50,47,44,48,45,43,100,93,87,30.21,30.12,30.01,10,3,0,14,2,20,0.00,8,,62
2012-12-10,60,52,44,57,51,45,100,95,82,29.99,29.75,29.60,10,3,0,12,3,18,0.00,7,,219
2012-12-11,59,46,33,55,35,28,93,72,50,30.25,30.00,29.65,10,10,5,12,6,31,0.00,6,,313
2012-12-12,44,38,32,32,29,27,100,74,49,30.45,30.38,30.25,10,10,10,7,1,,0.00,1,,4
2012-12-13,46,36,26,30,25,21,93,68,37,30.48,30.43,30.37,10,10,10,12,2,,0.00,0,,47
2012-12-14,53,37,21,32,26,19,100,79,35,30.37,30.30,30.23,10,10,10,9,1,,0.00,0,,227
2012-12-15,51,40,28,36,31,27,100,74,41,30.33,30.25,30.16,10,10,10,9,2,,0.00,1,,110
2012-12-16,50,46,41,45,41,36,100,85,71,30.17,30.00,29.87,10,8,2,9,1,,0.00,7,,150
2012-12-17,51,48,46,50,47,45,100,95,87,29.90,29.79,29.58,4,1,0,13,2,16,0.00,8,,100
2012-12-18,59,47,33,52,40,30,100,76,42,29.83,29.65,29.55,10,8,0,20,6,34,0.00,4,,270
2012-12-19,51,40,30,34,32,28,100,76,50,30.21,29.98,29.83,10,10,7,13,2,21,0.00,3,,312
2012-12-20,48,38,30,46,34,28,100,83,57,30.24,30.04,29.51,10,8,2,13,3,25,0.00,2,,118
2012-12-21,55,45,35,54,31,21,94,66,49,29.56,29.42,29.27,10,10,2,24,16,38,0.00,7,,263
2012-12-22,42,37,32,23,21,19,64,53,39,30.04,29.82,29.56,10,10,10,25,16,40,0.00,4,,283
2012-12-23,46,34,23,25,21,16,93,64,29,30.09,30.02,29.93,10,10,10,12,5,,0.00,0,,235
2012-12-24,37,30,23,34,28,21,100,91,65,30.12,30.02,29.93,10,7,1,7,1,,0.00,4,,102
2012-12-25,46,38,30,37,32,28,100,85,57,30.28,30.11,29.93,10,6,0,10,2,,0.00,3,,344
2012-12-26,46,39,32,45,33,27,100,89,75,30.28,29.87,29.38,10,7,2,16,7,25,0.00,6,,53
2012-12-27,42,38,33,41,29,25,100,76,56,30.03,29.73,29.39,10,9,2,25,13,39,0.00,7,,296
2012-12-28,41,34,28,30,27,27,93,76,57,30.17,30.10,30.03,10,10,10,9,4,,0.00,1,,298
2012-12-29,37,34,32,34,31,28,100,89,75,30.07,29.78,29.59,10,7,0,17,3,30,0.00,6,,291
2012-12-30,41,36,28,28,22,18,75,60,42,30.35,30.12,29.82,10,10,10,24,13,37,0.00,5,,290
2012-12-31,41,34,26,28,23,19,86,65,42,30.35,30.20,30.02,10,10,10,9,4,,0.00,3,,228